Time;durP1;ratioP1;P1;durP2;ratioP2;P2;SDS_P1;SDS_P2;PMS_P1;PMS_P2;Temp;Humidity;BMP_temperature;BMP_pressure;BME280_temperature;BME280_humidity;BME280_pressure;Samples;Min_cycle;Max_cycle;Signal;HPM_P1;HPM_P2
2022/11/02 00:01:27;;;;;;;11.15;2.00;;;;;;;10.97;88.82;101229.88;4920142;29;20222;-44
2022/11/02 00:03:53;;;;;;;9.60;2.15;;;;;;;10.97;88.62;101229.88;4913790;29;20211;-45
2022/11/02 00:06:18;;;;;;;7.25;2.30;;;;;;;10.98;88.48;101231.66;4921539;29;20663;-44
2022/11/02 00:08:44;;;;;;;7.20;2.10;;;;;;;10.95;88.58;101229.03;4920394;28;20183;-46
2022/11/02 00:11:10;;;;;;;8.38;2.33;;;;;;;10.90;88.45;101241.75;4936484;28;20195;-47
2022/11/02 00:13:36;;;;;;;9.20;1.75;;;;;;;10.93;88.53;101236.25;4922574;28;20207;-47
2022/11/02 00:16:07;;;;;;;8.13;2.13;;;;;;;10.89;88.71;101248.03;4920890;29;20215;-45
2022/11/02 00:18:34;;;;;;;11.18;2.08;;;;;;;10.96;88.54;101238.00;4923984;29;20233;-46
2022/11/02 00:21:01;;;;;;;5.22;1.98;;;;;;;10.94;88.32;101232.66;4916789;29;20367;-45
2022/11/02 00:23:27;;;;;;;8.98;2.03;;;;;;;10.93;88.42;101225.53;4915851;28;20196;-44
2022/11/02 00:25:54;;;;;;;10.60;1.85;;;;;;;10.99;88.02;101216.44;4923907;29;20235;-43
2022/11/02 00:28:19;;;;;;;9.65;2.00;;;;;;;10.97;88.06;101227.19;4918741;29;20188;-45
2022/11/02 00:30:45;;;;;;;6.25;1.85;;;;;;;10.99;88.05;101221.78;4921672;29;20218;-41
2022/11/02 00:33:10;;;;;;;8.02;2.45;;;;;;;10.95;87.92;101217.47;4925299;29;20192;-43
2022/11/02 00:35:38;;;;;;;5.63;1.55;;;;;;;10.87;87.97;101217.72;4921780;29;20208;-45
2022/11/02 00:38:03;;;;;;;11.20;2.08;;;;;;;10.95;88.25;101214.78;4918307;28;20184;-44
2022/11/02 00:40:29;;;;;;;8.88;1.88;;;;;;;10.91;88.22;101214.00;4921135;29;20206;-43
2022/11/02 00:42:55;;;;;;;9.20;2.17;;;;;;;10.87;88.28;101212.38;4920045;28;20677;-44
2022/11/02 00:45:22;;;;;;;8.35;2.05;;;;;;;10.85;88.37;101214.22;4917977;29;20257;-45
2022/11/02 00:47:48;;;;;;;7.72;2.03;;;;;;;10.83;88.50;101200.00;4922843;28;20199;-46
2022/11/02 00:50:14;;;;;;;7.95;1.70;;;;;;;10.84;88.49;101199.91;4923796;29;20660;-44
2022/11/02 00:52:41;;;;;;;9.57;2.40;;;;;;;10.79;88.54;101206.38;4930671;28;20191;-46
2022/11/02 00:55:08;;;;;;;9.07;1.83;;;;;;;10.77;88.76;101209.09;4952406;28;20589;-44
2022/11/02 00:57:35;;;;;;;10.98;2.40;;;;;;;10.72;88.81;101195.00;4925757;28;20290;-43
2022/11/02 01:00:00;;;;;;;7.18;1.88;;;;;;;10.72;88.74;101203.88;4923212;29;20183;-44
2022/11/02 01:02:26;;;;;;;10.23;1.98;;;;;;;10.65;89.15;101205.03;4920914;29;20203;-45
2022/11/02 01:04:51;;;;;;;13.27;2.38;;;;;;;10.66;89.19;101208.56;4916033;29;20344;-44
2022/11/02 01:07:18;;;;;;;7.80;2.33;;;;;;;10.69;89.35;101195.97;4917823;29;20212;-45
2022/11/02 01:09:43;;;;;;;8.40;2.08;;;;;;;10.62;89.27;101191.72;4927680;28;20199;-47
2022/11/02 01:12:09;;;;;;;5.72;1.80;;;;;;;10.59;89.53;101194.50;4922255;28;20184;-45
2022/11/02 01:14:35;;;;;;;11.88;2.10;;;;;;;10.52;89.75;101196.50;4916571;28;21228;-44
2022/11/02 01:17:00;;;;;;;6.93;1.95;;;;;;;10.47;90.11;101194.88;4919303;28;20258;-48
2022/11/02 01:19:26;;;;;;;7.18;1.90;;;;;;;10.50;90.15;101194.81;4918685;28;20180;-45
2022/11/02 01:21:52;;;;;;;6.85;1.67;;;;;;;10.45;90.34;101186.91;4921371;28;20497;-48
2022/11/02 01:24:17;;;;;;;8.27;1.80;;;;;;;10.51;90.57;101202.78;4925019;29;20212;-46
2022/11/02 01:26:43;;;;;;;9.57;2.05;;;;;;;10.46;90.54;101185.97;4918097;28;20218;-44
2022/11/02 01:29:09;;;;;;;7.85;2.38;;;;;;;10.43;90.67;101193.22;4902026;28;20278;-44
2022/11/02 01:31:35;;;;;;;7.60;2.22;;;;;;;10.40;90.86;101188.84;4918646;29;20268;-46
2022/11/02 01:34:02;;;;;;;8.80;1.77;;;;;;;10.39;91.16;101175.53;4927983;28;20215;-46
2022/11/02 01:36:27;;;;;;;8.85;2.17;;;;;;;10.41;91.28;101176.34;4919829;29;20188;-43
2022/11/02 01:38:54;;;;;;;15.10;2.35;;;;;;;10.45;91.22;101173.53;4919334;29;20536;-45
2022/11/02 01:41:20;;;;;;;9.25;2.17;;;;;;;10.46;91.14;101169.91;4916779;29;20620;-43
2022/11/02 01:43:51;;;;;;;12.40;2.03;;;;;;;10.49;91.08;101160.88;4926984;29;20219;-45
2022/11/02 01:46:23;;;;;;;6.22;1.67;;;;;;;10.52;91.21;101158.13;4920798;28;20215;-45
2022/11/02 01:48:49;;;;;;;9.52;2.08;;;;;;;10.45;91.02;101157.47;4913616;29;20195;-46
2022/11/02 01:51:35;;;;;;;7.65;2.15;;;;;;;10.42;91.13;101152.19;4915735;29;20200;-44
2022/11/02 01:54:11;;;;;;;13.55;2.10;;;;;;;10.43;91.25;101145.00;4933762;28;20214;-45
2022/11/02 01:56:38;;;;;;;12.18;2.00;;;;;;;10.41;91.32;101150.44;4922252;29;20179;-44
2022/11/02 01:59:07;;;;;;;4.18;1.70;;;;;;;10.36;91.43;101147.00;4920164;29;20277;-43
2022/11/02 02:01:33;;;;;;;10.85;1.83;;;;;;;10.37;91.73;101150.59;4919395;28;20278;-44
2022/11/02 02:04:00;;;;;;;10.30;2.20;;;;;;;10.42;91.90;101151.31;4925348;28;20298;-43
2022/11/02 02:06:26;;;;;;;6.82;1.90;;;;;;;10.47;91.75;101136.84;4929201;28;20203;-46
2022/11/02 02:08:54;;;;;;;11.10;1.95;;;;;;;10.51;91.58;101129.56;4915232;29;20571;-45
2022/11/02 02:11:34;;;;;;;8.32;1.90;;;;;;;10.59;91.47;101130.19;4917758;29;20180;-46
2022/11/02 02:14:14;;;;;;;7.40;1.98;;;;;;;10.61;91.27;101125.66;4917658;29;20211;-46
2022/11/02 02:17:01;;;;;;;8.57;1.92;;;;;;;10.59;91.29;101130.19;4920270;29;20167;-45
2022/11/02 02:19:48;;;;;;;10.38;2.15;;;;;;;10.66;91.30;101126.38;4925121;28;20200;-45
2022/11/02 02:22:34;;;;;;;7.93;2.03;;;;;;;10.70;91.09;101127.16;4917077;29;20247;-44
2022/11/02 02:25:31;;;;;;;6.18;2.13;;;;;;;10.69;91.06;101112.91;4917386;28;20723;-46
2022/11/02 02:28:18;;;;;;;7.50;2.13;;;;;;;10.68;91.10;101104.91;4924120;28;20184;-45
2022/11/02 02:31:04;;;;;;;12.40;2.35;;;;;;;10.72;91.08;101110.09;4919620;29;20210;-44
2022/11/02 02:33:32;;;;;;;13.32;2.40;;;;;;;10.72;90.95;101107.41;4914567;28;20191;-44
2022/11/02 02:36:18;;;;;;;12.02;2.55;;;;;;;10.73;90.99;101113.66;4917177;28;20235;-45
2022/11/02 02:38:52;;;;;;;9.07;2.33;;;;;;;10.75;91.17;101113.59;4917628;29;20235;-45
2022/11/02 02:41:38;;;;;;;7.40;2.00;;;;;;;10.79;91.00;101110.75;4918530;28;20199;-44
2022/11/02 02:44:09;;;;;;;6.82;2.20;;;;;;;10.80;91.12;101108.94;4920994;29;20664;-44
2022/11/02 02:46:40;;;;;;;8.85;2.55;;;;;;;10.76;91.81;101112.66;4930312;28;20208;-43
2022/11/02 02:49:12;;;;;;;10.88;1.77;;;;;;;10.65;92.92;101095.16;4917812;29;20215;-44
2022/11/02 02:51:40;;;;;;;11.65;2.17;;;;;;;10.58;94.30;101068.63;4920827;29;20180;-43
2022/11/02 02:54:11;;;;;;;11.43;2.15;;;;;;;10.51;95.22;101109.00;4924910;28;20261;-44
2022/11/02 02:57:00;;;;;;;14.30;2.50;;;;;;;10.44;96.94;101117.31;4919636;28;20186;-46
2022/11/02 02:59:30;;;;;;;17.45;2.70;;;;;;;10.28;98.24;101123.13;4927536;28;20191;-46
2022/11/02 03:01:58;;;;;;;9.95;2.10;;;;;;;10.23;99.56;101124.19;4917262;29;20192;-47
2022/11/02 03:04:24;;;;;;;10.43;2.03;;;;;;;10.23;100.00;101126.88;4916564;29;20211;-45
2022/11/02 03:06:57;;;;;;;13.27;2.17;;;;;;;10.18;100.00;101121.66;4921396;28;20683;-46
2022/11/02 03:09:25;;;;;;;8.13;2.40;;;;;;;10.20;100.00;101116.28;4931532;28;20189;-45
2022/11/02 03:11:56;;;;;;;9.57;2.45;;;;;;;10.14;100.00;101132.53;4923017;29;20228;-44
2022/11/02 03:14:42;;;;;;;8.63;2.25;;;;;;;10.22;100.00;101130.50;4917504;28;20216;-43
2022/11/02 03:17:17;;;;;;;12.43;2.10;;;;;;;10.13;100.00;101128.13;4927602;28;20264;-45
2022/11/02 03:19:56;;;;;;;10.85;2.03;;;;;;;10.06;100.00;101127.44;4921329;28;20540;-43
2022/11/02 03:22:32;;;;;;;11.77;2.53;;;;;;;9.97;100.00;101117.88;4917869;29;20738;-45
2022/11/02 03:25:19;;;;;;;5.68;2.13;;;;;;;9.91;100.00;101118.06;4916651;29;20218;-45
2022/11/02 03:28:08;;;;;;;10.95;2.20;;;;;;;9.90;100.00;101117.22;4937528;28;20674;-41
2022/11/02 03:30:43;;;;;;;6.03;1.83;;;;;;;9.86;100.00;101109.28;4927797;29;20278;-45
2022/11/02 03:33:18;;;;;;;9.40;2.78;;;;;;;9.83;100.00;101128.13;4923492;28;20183;-44
2022/11/02 03:35:51;;;;;;;10.43;2.17;;;;;;;9.83;100.00;101137.03;4921927;29;20550;-46
2022/11/02 03:38:44;;;;;;;11.27;2.33;;;;;;;9.86;100.00;101130.69;4905306;28;20184;-45
2022/11/02 03:41:11;;;;;;;8.60;2.40;;;;;;;9.89;100.00;101119.91;4928479;28;20192;-44
2022/11/02 03:43:40;;;;;;;7.40;2.97;;;;;;;9.84;100.00;101117.38;4920773;28;20314;-43
2022/11/02 03:46:08;;;;;;;13.90;2.80;;;;;;;9.85;100.00;101116.44;4921096;28;20207;-46
2022/11/02 03:48:39;;;;;;;8.77;2.38;;;;;;;9.84;100.00;101106.69;4917538;29;20211;-46
2022/11/02 03:51:10;;;;;;;14.32;3.22;;;;;;;9.81;100.00;101108.56;4919237;28;20180;-46
2022/11/02 03:53:52;;;;;;;12.27;2.63;;;;;;;9.83;100.00;101110.28;4927047;28;20246;-44
2022/11/02 03:56:24;;;;;;;9.50;2.10;;;;;;;9.82;100.00;101102.31;4927685;28;20267;-47
2022/11/02 03:58:50;;;;;;;11.05;2.50;;;;;;;9.82;100.00;101118.38;4920249;28;20195;-44
2022/11/02 04:01:19;;;;;;;12.88;2.75;;;;;;;9.83;100.00;101106.72;4924827;28;20194;-43
2022/11/02 04:03:46;;;;;;;7.90;2.40;;;;;;;9.82;100.00;101116.56;4915067;29;20216;-46
2022/11/02 04:06:12;;;;;;;11.48;2.22;;;;;;;9.81;100.00;101101.41;4920807;28;20216;-45
2022/11/02 04:08:42;;;;;;;12.32;2.63;;;;;;;9.85;100.00;101103.06;4921770;28;20277;-47
2022/11/02 04:19:46;;;;;;;10.27;2.90;;;;;;;9.87;100.00;101108.38;4923227;29;20267;-44
2022/11/02 04:25:17;;;;;;;11.52;2.40;;;;;;;9.88;100.00;101108.34;4930320;28;20657;-47
2022/11/02 04:27:55;;;;;;;12.45;2.47;;;;;;;9.92;100.00;101106.44;4925540;29;20180;-44
2022/11/02 04:30:25;;;;;;;13.30;2.33;;;;;;;9.96;100.00;101094.72;4927068;28;20199;-43
2022/11/02 04:35:44;;;;;;;13.00;2.15;;;;;;;9.90;100.00;101092.22;4927998;28;20180;-45
2022/11/02 04:43:44;;;;;;;16.23;2.85;;;;;;;9.88;100.00;101107.44;4931721;29;20839;-45
2022/11/02 04:46:11;;;;;;;13.77;2.22;;;;;;;9.91;100.00;101094.00;4936038;28;20714;-45
2022/11/02 04:48:37;;;;;;;11.60;2.05;;;;;;;9.94;100.00;101085.84;4925797;29;20181;-44
2022/11/02 04:51:02;;;;;;;9.23;2.78;;;;;;;9.98;100.00;101092.00;4913791;28;20234;-43
2022/11/02 04:53:28;;;;;;;10.27;2.53;;;;;;;9.95;100.00;101087.63;4920431;29;20190;-44
2022/11/02 04:55:54;;;;;;;10.75;2.00;;;;;;;9.99;100.00;101091.06;4916182;29;20192;-46
2022/11/02 04:58:20;;;;;;;8.40;2.38;;;;;;;10.00;100.00;101080.31;4929302;28;20192;-44
2022/11/02 05:00:46;;;;;;;9.35;2.35;;;;;;;10.03;100.00;101079.31;4923602;29;20294;-45
2022/11/02 05:03:11;;;;;;;16.50;2.50;;;;;;;10.06;100.00;101077.44;4919321;29;20215;-44
2022/11/02 05:05:38;;;;;;;12.73;2.15;;;;;;;10.09;100.00;101080.00;4917420;29;20238;-47
2022/11/02 05:08:04;;;;;;;10.27;2.03;;;;;;;10.10;100.00;101078.19;4919835;29;20344;-46
2022/11/02 05:10:29;;;;;;;14.35;2.38;;;;;;;10.13;100.00;101069.22;4917867;28;20188;-46
2022/11/02 05:12:57;;;;;;;11.77;2.30;;;;;;;10.11;100.00;101067.44;4923851;29;20180;-46
2022/11/02 05:15:25;;;;;;;11.60;2.28;;;;;;;10.13;100.00;101064.72;4935096;28;20212;-46
2022/11/02 05:17:51;;;;;;;9.02;1.90;;;;;;;10.15;100.00;101059.34;4893122;29;20199;-47
2022/11/02 05:20:17;;;;;;;13.68;2.95;;;;;;;10.14;100.00;101063.78;4923359;28;20187;-46
2022/11/02 05:22:43;;;;;;;9.52;2.08;;;;;;;10.14;100.00;101068.28;4919790;28;20188;-45
2022/11/02 05:25:11;;;;;;;7.30;1.95;;;;;;;10.15;100.00;101068.22;4917188;29;20215;-46
2022/11/02 05:27:37;;;;;;;12.40;2.35;;;;;;;10.13;100.00;101078.13;4915280;29;20212;-46
2022/11/02 05:30:04;;;;;;;8.35;1.90;;;;;;;10.14;100.00;101062.91;4916240;29;20299;-46
2022/11/02 05:32:30;;;;;;;13.13;3.15;;;;;;;10.13;100.00;101075.44;4916379;29;20657;-45
2022/11/02 05:34:56;;;;;;;11.52;2.28;;;;;;;10.09;100.00;101066.63;4920037;28;20675;-44
2022/11/02 05:37:22;;;;;;;12.68;2.30;;;;;;;10.14;100.00;101070.94;4910388;28;20188;-44
2022/11/02 05:39:48;;;;;;;9.60;2.38;;;;;;;10.11;100.00;101063.91;4923434;29;20183;-43
2022/11/02 05:42:13;;;;;;;15.57;2.17;;;;;;;10.05;100.00;101061.41;4919912;28;20184;-45
2022/11/02 05:44:39;;;;;;;8.98;1.88;;;;;;;10.08;100.00;101062.22;4922214;28;20688;-45
2022/11/02 05:47:05;;;;;;;8.95;2.35;;;;;;;10.07;100.00;101065.78;4914245;28;20215;-44
2022/11/02 05:49:30;;;;;;;13.07;2.67;;;;;;;10.06;100.00;101057.84;4917352;29;20250;-43
2022/11/02 05:51:56;;;;;;;10.80;2.33;;;;;;;10.09;100.00;101055.91;4920513;29;20179;-44
2022/11/02 05:54:22;;;;;;;10.90;2.20;;;;;;;10.14;100.00;101062.91;4920367;29;20285;-45
2022/11/02 05:56:47;;;;;;;8.38;2.13;;;;;;;10.16;100.00;101064.63;4924329;29;20184;-46
2022/11/02 05:59:13;;;;;;;11.48;2.35;;;;;;;10.11;100.00;101062.09;4924303;29;20660;-45
2022/11/02 06:01:38;;;;;;;11.60;2.10;;;;;;;10.20;100.00;101060.91;4919729;29;20184;-46
2022/11/02 06:04:04;;;;;;;12.07;2.53;;;;;;;10.17;100.00;101061.03;4920299;29;20286;-44
2022/11/02 06:06:30;;;;;;;10.90;2.20;;;;;;;10.17;100.00;101054.81;4917305;28;21142;-46
2022/11/02 06:08:56;;;;;;;11.13;2.05;;;;;;;10.16;100.00;101051.22;4920037;28;20648;-44
2022/11/02 06:11:21;;;;;;;11.43;2.47;;;;;;;10.13;100.00;101059.38;4919758;28;20210;-45
2022/11/02 06:13:49;;;;;;;8.43;2.28;;;;;;;10.07;100.00;101060.44;4923369;29;20211;-46
2022/11/02 06:16:16;;;;;;;10.52;2.65;;;;;;;10.07;100.00;101055.09;4917388;29;20188;-46
2022/11/02 06:18:42;;;;;;;9.30;2.40;;;;;;;10.07;100.00;101054.22;4941997;28;20199;-44
2022/11/02 06:21:08;;;;;;;9.90;1.98;;;;;;;10.14;100.00;101055.75;4918771;28;20222;-44
2022/11/02 06:23:34;;;;;;;10.30;2.20;;;;;;;10.17;100.00;101042.28;4914343;29;20213;-45
2022/11/02 06:26:00;;;;;;;13.45;2.15;;;;;;;10.11;100.00;101063.91;4916092;29;20231;-46
2022/11/02 06:28:27;;;;;;;8.07;1.95;;;;;;;10.05;100.00;101058.75;4920300;29;20604;-46
2022/11/02 06:30:53;;;;;;;6.80;1.65;;;;;;;10.06;100.00;101049.81;4900486;28;20572;-45
2022/11/02 06:33:19;;;;;;;9.43;2.40;;;;;;;10.06;100.00;101047.13;4918879;29;20202;-47
2022/11/02 06:35:49;;;;;;;14.85;2.03;;;;;;;10.08;100.00;101055.97;4920735;29;20172;-47
2022/11/02 06:38:16;;;;;;;10.45;2.40;;;;;;;10.08;100.00;101048.81;4921449;29;20331;-43
2022/11/02 06:40:42;;;;;;;11.13;2.30;;;;;;;10.09;100.00;101050.56;4926259;28;20187;-44
2022/11/02 06:43:08;;;;;;;8.70;1.90;;;;;;;10.11;100.00;101053.19;4919380;29;20191;-45
2022/11/02 06:45:34;;;;;;;8.23;2.50;;;;;;;10.23;100.00;101050.13;4919796;29;20219;-47
2022/11/02 06:48:00;;;;;;;7.70;2.58;;;;;;;10.22;100.00;101064.41;4919130;29;20549;-45
2022/11/02 06:50:26;;;;;;;7.60;1.95;;;;;;;10.21;100.00;101059.09;4919536;29;20202;-46
2022/11/02 06:52:51;;;;;;;6.93;1.90;;;;;;;10.27;100.00;101065.13;4921130;29;20565;-45
2022/11/02 06:55:18;;;;;;;10.80;2.47;;;;;;;10.37;100.00;101065.75;4921752;29;20211;-46
2022/11/02 06:57:44;;;;;;;8.63;2.28;;;;;;;10.40;100.00;101086.19;4920583;29;20183;-44
2022/11/02 07:00:12;;;;;;;10.80;2.47;;;;;;;10.39;100.00;101066.56;4917659;29;20176;-44
2022/11/02 07:02:39;;;;;;;13.80;2.35;;;;;;;10.46;100.00;101073.47;4920795;29;20655;-44
2022/11/02 07:05:05;;;;;;;13.65;2.40;;;;;;;10.46;100.00;101078.84;4916086;29;20204;-47
2022/11/02 07:07:31;;;;;;;8.20;1.90;;;;;;;10.52;100.00;101078.63;4916967;29;20219;-46
2022/11/02 07:09:56;;;;;;;12.05;2.47;;;;;;;10.55;100.00;101072.28;4914291;28;20975;-45
2022/11/02 07:12:22;;;;;;;9.02;2.05;;;;;;;10.56;100.00;101068.69;4914292;29;20258;-44
2022/11/02 07:14:48;;;;;;;9.32;2.15;;;;;;;10.62;100.00;101072.94;4924245;28;20201;-44
2022/11/02 07:17:13;;;;;;;8.10;1.90;;;;;;;10.63;100.00;101082.75;4918080;28;20179;-48
2022/11/02 07:19:39;;;;;;;6.97;2.50;;;;;;;10.62;100.00;101092.56;4919583;28;20191;-44
2022/11/02 07:22:04;;;;;;;8.15;1.75;;;;;;;10.67;100.00;101087.94;4921626;28;20176;-44
2022/11/02 07:24:30;;;;;;;8.07;1.90;;;;;;;10.70;100.00;101090.50;4915538;29;20207;-43
2022/11/02 07:26:55;;;;;;;11.73;2.67;;;;;;;10.71;100.00;101086.91;4914726;29;20258;-45
2022/11/02 07:29:21;;;;;;;8.68;2.08;;;;;;;10.69;100.00;101094.13;4916130;29;20679;-44
2022/11/02 07:31:47;;;;;;;8.90;2.08;;;;;;;10.74;100.00;101085.06;4922464;29;20183;-43
2022/11/02 07:34:12;;;;;;;9.00;2.00;;;;;;;10.77;99.72;101090.31;4918649;28;20199;-44
2022/11/02 07:36:38;;;;;;;5.85;1.60;;;;;;;10.79;99.71;101093.81;4919017;29;20175;-44
2022/11/02 07:39:05;;;;;;;8.13;2.17;;;;;;;10.81;99.53;101097.31;4918920;28;20184;-46
2022/11/02 07:41:31;;;;;;;8.55;2.10;;;;;;;10.83;99.33;101098.13;4915698;29;20198;-46
2022/11/02 07:43:56;;;;;;;10.77;2.17;;;;;;;10.88;99.09;101093.47;4914721;29;20310;-46
2022/11/02 07:46:31;;;;;;;7.90;1.70;;;;;;;10.88;98.95;101086.31;4915775;28;20923;-45
2022/11/02 07:48:57;;;;;;;16.42;2.35;;;;;;;10.89;98.81;101098.78;4920691;29;20253;-44
2022/11/02 07:51:22;;;;;;;6.28;1.98;;;;;;;10.93;98.64;101096.84;4923526;28;20263;-45
2022/11/02 07:53:48;;;;;;;9.38;1.90;;;;;;;10.93;98.18;101096.84;4918584;29;20203;-45
2022/11/02 07:56:13;;;;;;;6.93;1.98;;;;;;;10.88;98.27;101094.34;4918695;29;20706;-48
2022/11/02 07:58:39;;;;;;;10.15;2.42;;;;;;;10.87;98.09;101089.94;4914661;28;20374;-47
2022/11/02 08:01:04;;;;;;;8.73;1.60;;;;;;;10.95;97.88;101092.31;4914074;29;20187;-45
2022/11/02 08:03:30;;;;;;;8.27;1.90;;;;;;;10.95;97.85;101097.69;4914175;29;20267;-48
2022/11/02 08:05:55;;;;;;;8.75;1.90;;;;;;;10.94;97.46;101095.94;4922580;29;20257;-50
2022/11/02 08:08:23;;;;;;;4.55;1.75;;;;;;;10.94;97.75;101087.91;4916450;28;20576;-47
2022/11/02 08:10:50;;;;;;;5.50;1.83;;;;;;;11.04;97.53;101099.16;4913391;28;20582;-48
2022/11/02 08:13:21;;;;;;;7.03;1.70;;;;;;;11.18;97.22;101104.91;4916624;28;20679;-52
2022/11/02 08:15:53;;;;;;;7.18;1.80;;;;;;;11.28;96.74;101089.34;4923177;29;20203;-47
2022/11/02 08:18:21;;;;;;;4.80;1.50;;;;;;;11.42;96.07;101092.41;4919333;29;20184;-46
2022/11/02 08:20:47;;;;;;;6.50;1.75;;;;;;;11.52;95.47;101095.59;4918449;29;20675;-47
2022/11/02 08:23:19;;;;;;;4.88;1.83;;;;;;;11.60;95.09;101098.00;4916996;29;20187;-47
2022/11/02 08:25:47;;;;;;;6.10;1.50;;;;;;;11.55;94.83;101090.13;4918456;29;20215;-49
2022/11/02 08:28:38;;;;;;;13.05;2.42;;;;;;;11.41;94.12;101097.81;4926233;29;20640;-47
2022/11/02 08:31:06;;;;;;;5.50;1.30;;;;;;;11.43;94.14;101086.09;4923336;29;20552;-51
2022/11/02 08:33:32;;;;;;;4.43;1.33;;;;;;;11.39;94.30;101097.91;4920637;29;20176;-47
2022/11/02 08:36:03;;;;;;;8.98;1.92;;;;;;;11.33;94.42;101098.13;4912202;29;20554;-47
2022/11/02 08:38:30;;;;;;;6.05;1.70;;;;;;;11.36;94.81;101110.53;4924857;29;20230;-48
2022/11/02 08:40:56;;;;;;;4.85;1.38;;;;;;;11.36;94.46;101103.34;4919618;29;20187;-46
2022/11/02 08:43:21;;;;;;;4.00;1.48;;;;;;;11.47;94.22;101108.31;4917783;29;20246;-49
2022/11/02 08:45:46;;;;;;;10.70;2.03;;;;;;;11.62;93.65;101109.56;4918390;29;20186;-51
2022/11/02 08:48:12;;;;;;;7.90;1.77;;;;;;;11.57;93.61;101107.06;4925054;28;20187;-49
2022/11/02 08:50:38;;;;;;;5.22;1.73;;;;;;;11.57;93.76;101099.00;4924758;29;20279;-45
2022/11/02 08:53:04;;;;;;;5.65;1.73;;;;;;;11.68;93.22;101103.97;4924951;28;20179;-46
2022/11/02 08:55:29;;;;;;;5.93;1.50;;;;;;;11.68;93.19;101101.28;4919708;29;20699;-47
2022/11/02 08:57:57;;;;;;;5.95;1.60;;;;;;;11.92;92.53;101089.63;4922207;28;20192;-47
2022/11/02 09:00:25;;;;;;;8.13;1.55;;;;;;;12.07;91.57;101097.97;4924775;29;20192;-47
2022/11/02 09:03:11;;;;;;;11.38;1.63;;;;;;;12.13;90.89;101104.00;4917995;29;20227;-52
2022/11/02 09:05:39;;;;;;;5.15;1.40;;;;;;;12.40;90.20;101101.13;4920203;28;20718;-46
2022/11/02 09:08:07;;;;;;;5.97;2.00;;;;;;;12.33;89.60;101099.59;4917186;28;20278;-45
2022/11/02 09:10:34;;;;;;;6.20;1.73;;;;;;;11.98;89.24;101096.53;4924846;29;20636;-46
2022/11/02 09:13:01;;;;;;;7.32;2.10;;;;;;;11.88;90.05;101111.28;4917093;29;20241;-51
2022/11/02 09:15:28;;;;;;;4.82;1.33;;;;;;;11.67;90.89;101115.63;4935376;28;20680;-47
2022/11/02 09:17:54;;;;;;;9.55;1.70;;;;;;;11.55;91.98;101106.25;4920878;28;20179;-51
2022/11/02 09:20:20;;;;;;;6.85;1.38;;;;;;;11.53;92.72;101126.88;4922032;28;20187;-47
2022/11/02 09:22:46;;;;;;;6.28;1.88;;;;;;;11.46;93.02;101131.59;4914917;29;20221;-49
2022/11/02 09:25:12;;;;;;;9.50;1.30;;;;;;;11.55;93.21;101125.03;4919576;28;20711;-45
2022/11/02 09:27:39;;;;;;;5.85;1.45;;;;;;;11.50;93.46;101118.94;4920290;29;20283;-52
2022/11/02 09:30:05;;;;;;;4.72;1.55;;;;;;;11.55;94.10;101109.78;4916172;29;20227;-45
2022/11/02 09:32:32;;;;;;;8.40;1.90;;;;;;;11.93;93.54;101120.88;4917477;29;20176;-48
2022/11/02 09:35:07;;;;;;;8.68;1.77;;;;;;;11.98;92.74;101122.50;4920138;29;20702;-47
2022/11/02 09:37:33;;;;;;;5.55;1.77;;;;;;;11.97;91.95;101121.66;4927583;28;20225;-49
2022/11/02 09:39:59;;;;;;;6.43;1.40;;;;;;;12.18;91.36;101119.94;4918772;29;20530;-47
2022/11/02 09:42:53;;;;;;;9.82;1.98;;;;;;;12.20;90.54;101118.06;4920164;29;20269;-52
2022/11/02 09:45:19;;;;;;;8.00;1.67;;;;;;;12.07;90.26;101111.41;4919055;29;20677;-50
2022/11/02 09:47:55;;;;;;;8.52;1.55;;;;;;;11.95;90.12;101123.50;4912984;29;20214;-51
2022/11/02 09:50:23;;;;;;;7.35;1.75;;;;;;;11.66;90.76;101113.88;4919808;29;20234;-51
2022/11/02 09:52:54;;;;;;;5.47;1.48;;;;;;;11.53;91.88;101119.72;4927241;29;20696;-48
2022/11/02 09:55:26;;;;;;;7.05;1.60;;;;;;;11.55;93.19;101133.06;4913358;29;20266;-47
2022/11/02 09:58:11;;;;;;;10.00;2.20;;;;;;;11.56;94.06;101142.84;4922628;28;20670;-47
2022/11/02 10:00:40;;;;;;;6.28;1.42;;;;;;;11.53;94.40;101138.50;4913304;29;20184;-46
2022/11/02 10:03:37;;;;;;;6.05;1.80;;;;;;;11.51;94.82;101134.13;4921438;29;20668;-44
2022/11/02 10:06:10;;;;;;;5.20;1.65;;;;;;;11.48;95.06;101134.25;4923297;29;20211;-45
2022/11/02 10:08:54;;;;;;;9.02;1.90;;;;;;;11.46;95.70;101144.16;4917796;29;20192;-46
2022/11/02 10:11:43;;;;;;;9.57;1.60;;;;;;;11.49;96.16;101141.34;4919107;29;20282;-50
2022/11/02 10:14:26;;;;;;;7.50;1.52;;;;;;;11.50;95.86;101135.94;4902421;29;20324;-48
2022/11/02 10:17:15;;;;;;;8.50;1.80;;;;;;;11.54;95.89;101136.69;4917878;29;20250;-47
2022/11/02 10:19:46;;;;;;;6.22;1.60;;;;;;;11.46;95.99;101136.09;4922570;29;20539;-47
2022/11/02 10:22:14;;;;;;;6.97;1.73;;;;;;;11.44;95.88;101133.47;4912378;29;20618;-45
2022/11/02 10:24:45;;;;;;;5.93;1.58;;;;;;;11.40;96.00;101136.31;4917528;29;20638;-45
2022/11/02 10:27:37;;;;;;;8.55;1.50;;;;;;;11.38;96.33;101125.66;4918582;29;20215;-48
2022/11/02 10:30:17;;;;;;;10.65;1.90;;;;;;;11.32;96.97;101144.63;4919764;28;20298;-47
2022/11/02 10:32:44;;;;;;;7.20;2.20;;;;;;;11.26;97.59;101132.34;4915542;29;20199;-50
2022/11/02 10:35:33;;;;;;;8.68;2.00;;;;;;;11.20;99.16;101143.28;4920812;28;20253;-43
2022/11/02 10:38:07;;;;;;;9.35;2.15;;;;;;;11.10;100.00;101160.63;4914417;28;20203;-46
2022/11/02 10:40:57;;;;;;;6.88;1.88;;;;;;;10.84;100.00;101161.53;4919620;28;20215;-45
2022/11/02 10:43:50;;;;;;;8.13;2.72;;;;;;;10.98;100.00;101166.44;4915230;29;20285;-46
2022/11/02 10:46:31;;;;;;;11.88;1.88;;;;;;;11.01;100.00;101171.69;4920859;28;20309;-48
2022/11/02 10:49:28;;;;;;;8.30;1.80;;;;;;;11.10;100.00;101166.00;4918961;28;20187;-47
2022/11/02 10:51:53;;;;;;;8.10;2.10;;;;;;;11.66;100.00;101168.44;4916423;28;20655;-47
2022/11/02 10:54:19;;;;;;;8.65;1.60;;;;;;;11.87;100.00;101177.50;4912707;29;20212;-51
2022/11/02 10:56:47;;;;;;;6.55;1.60;;;;;;;11.87;100.00;101163.16;4916006;29;20192;-47
2022/11/02 10:59:15;;;;;;;6.95;1.52;;;;;;;12.03;100.00;101167.06;4920491;28;20200;-46
2022/11/02 11:01:56;;;;;;;7.88;1.67;;;;;;;12.01;100.00;101173.44;4918334;29;20627;-48
2022/11/02 11:04:24;;;;;;;3.35;1.30;;;;;;;11.97;100.00;101179.84;4921893;28;20215;-45
2022/11/02 11:06:50;;;;;;;5.43;1.42;;;;;;;11.93;98.84;101179.09;4918481;29;20253;-49
2022/11/02 11:09:29;;;;;;;5.57;1.40;;;;;;;11.90;96.97;101190.81;4913983;29;20199;-51
2022/11/02 11:11:58;;;;;;;12.65;1.42;;;;;;;11.85;95.57;101194.56;4922274;28;20187;-49
2022/11/02 11:14:28;;;;;;;5.40;1.50;;;;;;;11.97;95.25;101199.53;4920246;29;20285;-48
2022/11/02 11:16:56;;;;;;;4.70;0.98;;;;;;;12.18;94.83;101196.94;4919122;29;20590;-46
2022/11/02 11:19:32;;;;;;;4.70;1.27;;;;;;;12.14;94.24;101197.06;4918645;29;20188;-51
2022/11/02 11:21:58;;;;;;;11.25;1.85;;;;;;;11.95;93.79;101194.19;4919935;28;20266;-51
2022/11/02 11:24:30;;;;;;;4.50;1.17;;;;;;;12.02;93.50;101196.66;4917033;29;20253;-46
2022/11/02 11:27:00;;;;;;;6.30;1.35;;;;;;;11.97;93.30;101204.03;4923225;28;20257;-46
2022/11/02 11:29:29;;;;;;;5.95;1.20;;;;;;;11.79;93.15;101209.13;4913131;29;20222;-46
2022/11/02 11:31:55;;;;;;;5.07;1.30;;;;;;;11.54;93.80;101188.56;4918645;29;20180;-47
2022/11/02 11:34:24;;;;;;;9.20;2.00;;;;;;;11.43;94.22;101222.94;4919968;28;20655;-51
2022/11/02 11:36:50;;;;;;;6.28;1.55;;;;;;;11.46;94.16;101222.84;4924505;29;20182;-45
2022/11/02 11:39:37;;;;;;;6.78;1.45;;;;;;;11.20;93.82;101252.38;4916002;28;20305;-47
2022/11/02 11:42:11;;;;;;;6.05;1.30;;;;;;;11.18;94.42;101275.69;4921499;29;20221;-49
2022/11/02 11:44:37;;;;;;;9.07;1.80;;;;;;;10.98;95.50;101269.19;4918502;29;20254;-49
2022/11/02 11:47:03;;;;;;;7.18;1.85;;;;;;;10.96;96.57;101271.03;4918508;29;20192;-46
2022/11/02 11:49:38;;;;;;;13.93;2.08;;;;;;;10.91;97.13;101281.00;4919127;29;20449;-46
2022/11/02 11:52:04;;;;;;;7.40;1.80;;;;;;;10.72;98.01;101288.78;4923087;29;20186;-48